sensor_id;sensor_type;location;lat;lon;timestamp;P1;durP1;ratioP1;P2;durP2;ratioP2
65667;SDS011;52369;52.542;13.232;2023-02-15T00:01:43;31.35;;;13.18;;
65667;SDS011;52369;52.542;13.232;2023-02-15T00:04:09;30.67;;;13.50;;
65667;SDS011;52369;52.542;13.232;2023-02-15T00:06:38;31.98;;;13.18;;
65667;SDS011;52369;52.542;13.232;2023-02-15T00:09:04;30.10;;;12.98;;
65667;SDS011;52369;52.542;13.232;2023-02-15T00:11:30;29.80;;;12.57;;
65667;SDS011;52369;52.542;13.232;2023-02-15T00:16:31;32.42;;;14.52;;
65667;SDS011;52369;52.542;13.232;2023-02-15T00:18:57;29.85;;;14.43;;
65667;SDS011;52369;52.542;13.232;2023-02-15T00:21:26;33.88;;;14.30;;
65667;SDS011;52369;52.542;13.232;2023-02-15T00:23:53;30.38;;;13.63;;
65667;SDS011;52369;52.542;13.232;2023-02-15T00:26:19;31.50;;;13.38;;
65667;SDS011;52369;52.542;13.232;2023-02-15T00:28:45;32.70;;;14.20;;
65667;SDS011;52369;52.542;13.232;2023-02-15T00:31:11;31.40;;;14.00;;
65667;SDS011;52369;52.542;13.232;2023-02-15T00:33:38;30.48;;;13.23;;
65667;SDS011;52369;52.542;13.232;2023-02-15T00:36:05;34.00;;;13.73;;
65667;SDS011;52369;52.542;13.232;2023-02-15T00:38:32;32.17;;;13.80;;
65667;SDS011;52369;52.542;13.232;2023-02-15T00:40:59;31.42;;;13.80;;
65667;SDS011;52369;52.542;13.232;2023-02-15T00:43:26;32.08;;;13.98;;
65667;SDS011;52369;52.542;13.232;2023-02-15T00:45:52;36.05;;;14.93;;
65667;SDS011;52369;52.542;13.232;2023-02-15T00:48:19;31.38;;;14.18;;
65667;SDS011;52369;52.542;13.232;2023-02-15T00:50:45;32.33;;;13.98;;
65667;SDS011;52369;52.542;13.232;2023-02-15T00:53:12;34.83;;;15.32;;
65667;SDS011;52369;52.542;13.232;2023-02-15T00:55:38;31.08;;;14.27;;
65667;SDS011;52369;52.542;13.232;2023-02-15T00:58:05;30.23;;;12.70;;
65667;SDS011;52369;52.542;13.232;2023-02-15T01:00:31;33.58;;;14.77;;
65667;SDS011;52369;52.542;13.232;2023-02-15T01:02:57;32.85;;;14.68;;
65667;SDS011;52369;52.542;13.232;2023-02-15T01:05:23;32.80;;;15.02;;
65667;SDS011;52369;52.542;13.232;2023-02-15T01:07:49;31.85;;;12.98;;
65667;SDS011;52369;52.542;13.232;2023-02-15T01:10:16;32.53;;;13.05;;
65667;SDS011;52369;52.542;13.232;2023-02-15T01:12:42;31.55;;;13.15;;
65667;SDS011;52369;52.542;13.232;2023-02-15T01:15:08;33.40;;;13.50;;
65667;SDS011;52369;52.542;13.232;2023-02-15T01:17:34;31.98;;;13.82;;
65667;SDS011;52369;52.542;13.232;2023-02-15T01:20:00;33.42;;;13.93;;
65667;SDS011;52369;52.542;13.232;2023-02-15T01:22:27;32.42;;;14.30;;
65667;SDS011;52369;52.542;13.232;2023-02-15T01:24:53;32.40;;;13.80;;
65667;SDS011;52369;52.542;13.232;2023-02-15T01:27:19;30.15;;;13.57;;
65667;SDS011;52369;52.542;13.232;2023-02-15T01:29:45;27.65;;;12.98;;
65667;SDS011;52369;52.542;13.232;2023-02-15T01:32:12;33.20;;;14.25;;
65667;SDS011;52369;52.542;13.232;2023-02-15T01:34:38;31.75;;;13.73;;
65667;SDS011;52369;52.542;13.232;2023-02-15T01:37:04;32.78;;;14.13;;
65667;SDS011;52369;52.542;13.232;2023-02-15T01:39:30;32.00;;;13.68;;
65667;SDS011;52369;52.542;13.232;2023-02-15T01:41:56;31.33;;;13.77;;
65667;SDS011;52369;52.542;13.232;2023-02-15T01:47:07;30.77;;;13.88;;
65667;SDS011;52369;52.542;13.232;2023-02-15T01:49:34;30.58;;;13.63;;
65667;SDS011;52369;52.542;13.232;2023-02-15T01:52:01;32.20;;;14.18;;
65667;SDS011;52369;52.542;13.232;2023-02-15T01:54:29;29.70;;;13.50;;
65667;SDS011;52369;52.542;13.232;2023-02-15T01:56:56;31.52;;;13.07;;
65667;SDS011;52369;52.542;13.232;2023-02-15T01:59:23;31.52;;;14.65;;
65667;SDS011;52369;52.542;13.232;2023-02-15T02:01:54;31.02;;;13.73;;
65667;SDS011;52369;52.542;13.232;2023-02-15T02:04:29;31.45;;;13.88;;
65667;SDS011;52369;52.542;13.232;2023-02-15T02:06:57;35.70;;;14.25;;
65667;SDS011;52369;52.542;13.232;2023-02-15T02:09:23;32.28;;;13.80;;
65667;SDS011;52369;52.542;13.232;2023-02-15T02:11:49;33.13;;;14.90;;
65667;SDS011;52369;52.542;13.232;2023-02-15T02:14:16;33.47;;;14.23;;
65667;SDS011;52369;52.542;13.232;2023-02-15T02:24:55;31.50;;;13.27;;
65667;SDS011;52369;52.542;13.232;2023-02-15T02:27:32;30.77;;;13.80;;
65667;SDS011;52369;52.542;13.232;2023-02-15T02:33:27;31.08;;;13.55;;
65667;SDS011;52369;52.542;13.232;2023-02-15T02:38:23;31.10;;;13.35;;
65667;SDS011;52369;52.542;13.232;2023-02-15T02:43:21;35.67;;;14.77;;
65667;SDS011;52369;52.542;13.232;2023-02-15T02:45:51;34.88;;;15.70;;
65667;SDS011;52369;52.542;13.232;2023-02-15T02:48:20;30.33;;;14.40;;
65667;SDS011;52369;52.542;13.232;2023-02-15T02:50:47;30.85;;;14.23;;
65667;SDS011;52369;52.542;13.232;2023-02-15T02:53:13;33.72;;;13.77;;
65667;SDS011;52369;52.542;13.232;2023-02-15T03:00:35;34.33;;;14.88;;
65667;SDS011;52369;52.542;13.232;2023-02-15T03:03:09;31.58;;;14.93;;
65667;SDS011;52369;52.542;13.232;2023-02-15T03:05:37;36.25;;;14.80;;
65667;SDS011;52369;52.542;13.232;2023-02-15T03:08:05;31.80;;;15.02;;
65667;SDS011;52369;52.542;13.232;2023-02-15T03:10:35;37.15;;;15.52;;
65667;SDS011;52369;52.542;13.232;2023-02-15T03:13:02;31.80;;;14.30;;
65667;SDS011;52369;52.542;13.232;2023-02-15T03:15:34;34.63;;;14.82;;
65667;SDS011;52369;52.542;13.232;2023-02-15T03:18:22;31.38;;;14.57;;
65667;SDS011;52369;52.542;13.232;2023-02-15T03:20:48;33.35;;;14.00;;
65667;SDS011;52369;52.542;13.232;2023-02-15T03:23:17;31.75;;;14.45;;
65667;SDS011;52369;52.542;13.232;2023-02-15T03:25:46;32.35;;;13.55;;
65667;SDS011;52369;52.542;13.232;2023-02-15T03:28:13;36.72;;;14.40;;
65667;SDS011;52369;52.542;13.232;2023-02-15T03:30:42;36.72;;;15.05;;
65667;SDS011;52369;52.542;13.232;2023-02-15T03:33:10;34.03;;;14.05;;
65667;SDS011;52369;52.542;13.232;2023-02-15T03:35:39;32.65;;;13.65;;
65667;SDS011;52369;52.542;13.232;2023-02-15T03:38:09;32.50;;;14.30;;
65667;SDS011;52369;52.542;13.232;2023-02-15T03:40:40;34.20;;;14.00;;
65667;SDS011;52369;52.542;13.232;2023-02-15T03:45:56;35.60;;;14.48;;
65667;SDS011;52369;52.542;13.232;2023-02-15T03:48:28;32.30;;;14.02;;
65667;SDS011;52369;52.542;13.232;2023-02-15T03:50:57;33.50;;;14.45;;
65667;SDS011;52369;52.542;13.232;2023-02-15T03:53:43;35.10;;;14.95;;
65667;SDS011;52369;52.542;13.232;2023-02-15T03:56:10;38.30;;;16.02;;
65667;SDS011;52369;52.542;13.232;2023-02-15T03:58:36;35.42;;;14.88;;
65667;SDS011;52369;52.542;13.232;2023-02-15T04:04:07;39.22;;;16.10;;
65667;SDS011;52369;52.542;13.232;2023-02-15T04:06:34;35.83;;;15.93;;
65667;SDS011;52369;52.542;13.232;2023-02-15T04:09:00;40.03;;;15.85;;
65667;SDS011;52369;52.542;13.232;2023-02-15T04:11:45;33.22;;;14.27;;
65667;SDS011;52369;52.542;13.232;2023-02-15T04:14:11;39.25;;;14.73;;
65667;SDS011;52369;52.542;13.232;2023-02-15T04:16:56;38.88;;;15.70;;
65667;SDS011;52369;52.542;13.232;2023-02-15T04:19:22;42.22;;;16.23;;
65667;SDS011;52369;52.542;13.232;2023-02-15T04:22:06;41.42;;;17.45;;
65667;SDS011;52369;52.542;13.232;2023-02-15T04:24:51;42.67;;;17.98;;
65667;SDS011;52369;52.542;13.232;2023-02-15T04:27:36;45.40;;;18.85;;
65667;SDS011;52369;52.542;13.232;2023-02-15T04:30:02;46.95;;;18.50;;
65667;SDS011;52369;52.542;13.232;2023-02-15T04:32:28;46.92;;;19.80;;
65667;SDS011;52369;52.542;13.232;2023-02-15T04:34:54;46.33;;;19.17;;
65667;SDS011;52369;52.542;13.232;2023-02-15T04:37:20;47.08;;;19.63;;
65667;SDS011;52369;52.542;13.232;2023-02-15T04:39:46;45.28;;;19.45;;
65667;SDS011;52369;52.542;13.232;2023-02-15T04:42:12;49.95;;;20.23;;
65667;SDS011;52369;52.542;13.232;2023-02-15T04:44:38;45.75;;;19.83;;
65667;SDS011;52369;52.542;13.232;2023-02-15T04:47:04;48.08;;;20.23;;
65667;SDS011;52369;52.542;13.232;2023-02-15T04:49:30;48.97;;;19.58;;
65667;SDS011;52369;52.542;13.232;2023-02-15T04:51:56;52.05;;;20.60;;
65667;SDS011;52369;52.542;13.232;2023-02-15T04:54:22;52.38;;;21.58;;
65667;SDS011;52369;52.542;13.232;2023-02-15T04:56:48;52.83;;;21.75;;
65667;SDS011;52369;52.542;13.232;2023-02-15T04:59:14;48.30;;;19.30;;
65667;SDS011;52369;52.542;13.232;2023-02-15T05:01:40;51.75;;;19.45;;
65667;SDS011;52369;52.542;13.232;2023-02-15T05:04:07;47.08;;;20.80;;
65667;SDS011;52369;52.542;13.232;2023-02-15T05:06:33;50.67;;;21.08;;
65667;SDS011;52369;52.542;13.232;2023-02-15T05:08:59;49.22;;;20.02;;
65667;SDS011;52369;52.542;13.232;2023-02-15T05:11:28;54.90;;;21.15;;
65667;SDS011;52369;52.542;13.232;2023-02-15T05:13:54;53.83;;;20.98;;
65667;SDS011;52369;52.542;13.232;2023-02-15T05:16:20;49.88;;;21.33;;
65667;SDS011;52369;52.542;13.232;2023-02-15T05:18:46;50.35;;;20.63;;
65667;SDS011;52369;52.542;13.232;2023-02-15T05:21:12;50.97;;;20.02;;
65667;SDS011;52369;52.542;13.232;2023-02-15T05:23:41;47.75;;;20.10;;
65667;SDS011;52369;52.542;13.232;2023-02-15T05:26:09;53.72;;;21.27;;
65667;SDS011;52369;52.542;13.232;2023-02-15T05:28:54;49.95;;;19.67;;
65667;SDS011;52369;52.542;13.232;2023-02-15T05:31:20;51.50;;;20.17;;
65667;SDS011;52369;52.542;13.232;2023-02-15T05:33:46;52.00;;;19.20;;
65667;SDS011;52369;52.542;13.232;2023-02-15T05:36:12;49.75;;;19.70;;
65667;SDS011;52369;52.542;13.232;2023-02-15T05:38:38;49.50;;;19.83;;
65667;SDS011;52369;52.542;13.232;2023-02-15T05:41:05;47.33;;;18.35;;
65667;SDS011;52369;52.542;13.232;2023-02-15T05:43:31;46.35;;;19.67;;
65667;SDS011;52369;52.542;13.232;2023-02-15T05:45:58;46.20;;;19.42;;
65667;SDS011;52369;52.542;13.232;2023-02-15T05:48:24;49.97;;;21.15;;
65667;SDS011;52369;52.542;13.232;2023-02-15T05:51:01;48.65;;;19.45;;
65667;SDS011;52369;52.542;13.232;2023-02-15T05:53:27;57.67;;;21.25;;
65667;SDS011;52369;52.542;13.232;2023-02-15T05:55:54;51.92;;;20.95;;
65667;SDS011;52369;52.542;13.232;2023-02-15T05:58:24;47.42;;;18.85;;
65667;SDS011;52369;52.542;13.232;2023-02-15T06:00:50;55.25;;;21.08;;
65667;SDS011;52369;52.542;13.232;2023-02-15T06:03:16;53.03;;;20.02;;
65667;SDS011;52369;52.542;13.232;2023-02-15T06:05:42;46.78;;;19.92;;
65667;SDS011;52369;52.542;13.232;2023-02-15T06:08:08;45.35;;;18.05;;
65667;SDS011;52369;52.542;13.232;2023-02-15T06:10:34;48.22;;;19.42;;
65667;SDS011;52369;52.542;13.232;2023-02-15T06:13:00;49.22;;;20.17;;
65667;SDS011;52369;52.542;13.232;2023-02-15T06:15:26;46.90;;;20.17;;
65667;SDS011;52369;52.542;13.232;2023-02-15T06:17:52;48.65;;;19.58;;
65667;SDS011;52369;52.542;13.232;2023-02-15T06:20:19;47.88;;;18.42;;
65667;SDS011;52369;52.542;13.232;2023-02-15T06:22:45;56.85;;;20.52;;
65667;SDS011;52369;52.542;13.232;2023-02-15T06:25:11;49.20;;;19.92;;
65667;SDS011;52369;52.542;13.232;2023-02-15T06:27:37;48.63;;;19.50;;
65667;SDS011;52369;52.542;13.232;2023-02-15T06:30:07;51.03;;;20.10;;
65667;SDS011;52369;52.542;13.232;2023-02-15T06:32:33;52.88;;;21.33;;
65667;SDS011;52369;52.542;13.232;2023-02-15T06:34:59;53.28;;;20.50;;
65667;SDS011;52369;52.542;13.232;2023-02-15T06:37:25;46.42;;;20.02;;
65667;SDS011;52369;52.542;13.232;2023-02-15T06:39:51;52.15;;;20.35;;
65667;SDS011;52369;52.542;13.232;2023-02-15T06:42:17;48.50;;;20.65;;
65667;SDS011;52369;52.542;13.232;2023-02-15T06:44:44;50.58;;;20.75;;
65667;SDS011;52369;52.542;13.232;2023-02-15T06:47:10;53.05;;;20.88;;
65667;SDS011;52369;52.542;13.232;2023-02-15T06:49:36;51.65;;;20.35;;
65667;SDS011;52369;52.542;13.232;2023-02-15T06:52:02;53.80;;;21.13;;
65667;SDS011;52369;52.542;13.232;2023-02-15T06:54:29;59.67;;;20.70;;
65667;SDS011;52369;52.542;13.232;2023-02-15T06:56:55;52.30;;;20.38;;
65667;SDS011;52369;52.542;13.232;2023-02-15T06:59:21;49.25;;;20.10;;
65667;SDS011;52369;52.542;13.232;2023-02-15T07:01:47;63.00;;;21.02;;
65667;SDS011;52369;52.542;13.232;2023-02-15T07:04:14;56.95;;;20.33;;
65667;SDS011;52369;52.542;13.232;2023-02-15T07:06:40;57.90;;;21.23;;
65667;SDS011;52369;52.542;13.232;2023-02-15T07:09:06;54.22;;;20.92;;
65667;SDS011;52369;52.542;13.232;2023-02-15T07:11:33;55.35;;;19.55;;
65667;SDS011;52369;52.542;13.232;2023-02-15T07:14:18;55.17;;;20.73;;
65667;SDS011;52369;52.542;13.232;2023-02-15T07:16:44;54.00;;;20.42;;
65667;SDS011;52369;52.542;13.232;2023-02-15T07:19:10;57.50;;;20.60;;
65667;SDS011;52369;52.542;13.232;2023-02-15T07:21:36;51.47;;;19.33;;
65667;SDS011;52369;52.542;13.232;2023-02-15T07:24:02;54.75;;;20.15;;
65667;SDS011;52369;52.542;13.232;2023-02-15T07:26:28;54.05;;;18.75;;
65667;SDS011;52369;52.542;13.232;2023-02-15T07:28:54;58.13;;;20.17;;
65667;SDS011;52369;52.542;13.232;2023-02-15T07:31:20;56.38;;;19.75;;
65667;SDS011;52369;52.542;13.232;2023-02-15T07:33:46;50.10;;;19.60;;
65667;SDS011;52369;52.542;13.232;2023-02-15T07:36:12;54.28;;;20.73;;
65667;SDS011;52369;52.542;13.232;2023-02-15T07:38:39;58.53;;;20.67;;
65667;SDS011;52369;52.542;13.232;2023-02-15T07:41:07;51.22;;;19.55;;
65667;SDS011;52369;52.542;13.232;2023-02-15T07:43:35;57.88;;;20.65;;
65667;SDS011;52369;52.542;13.232;2023-02-15T07:46:02;54.72;;;20.58;;
65667;SDS011;52369;52.542;13.232;2023-02-15T07:48:28;55.65;;;20.02;;
65667;SDS011;52369;52.542;13.232;2023-02-15T07:50:56;50.90;;;19.75;;
65667;SDS011;52369;52.542;13.232;2023-02-15T07:53:24;57.03;;;20.20;;
65667;SDS011;52369;52.542;13.232;2023-02-15T07:55:50;54.53;;;19.08;;
65667;SDS011;52369;52.542;13.232;2023-02-15T07:58:17;55.97;;;20.35;;
65667;SDS011;52369;52.542;13.232;2023-02-15T08:00:43;48.92;;;18.40;;
65667;SDS011;52369;52.542;13.232;2023-02-15T08:03:24;55.47;;;18.38;;
65667;SDS011;52369;52.542;13.232;2023-02-15T08:05:57;46.03;;;18.52;;
65667;SDS011;52369;52.542;13.232;2023-02-15T08:08:24;46.42;;;18.00;;
65667;SDS011;52369;52.542;13.232;2023-02-15T08:13:44;52.35;;;17.48;;
65667;SDS011;52369;52.542;13.232;2023-02-15T08:16:27;46.72;;;18.27;;
65667;SDS011;52369;52.542;13.232;2023-02-15T08:18:53;45.45;;;16.65;;
65667;SDS011;52369;52.542;13.232;2023-02-15T08:21:20;43.67;;;17.63;;
65667;SDS011;52369;52.542;13.232;2023-02-15T08:23:46;42.05;;;17.30;;
65667;SDS011;52369;52.542;13.232;2023-02-15T08:26:13;50.35;;;17.65;;
65667;SDS011;52369;52.542;13.232;2023-02-15T08:28:41;42.58;;;17.52;;
65667;SDS011;52369;52.542;13.232;2023-02-15T08:31:08;44.83;;;16.83;;
65667;SDS011;52369;52.542;13.232;2023-02-15T08:33:34;43.28;;;15.77;;
65667;SDS011;52369;52.542;13.232;2023-02-15T08:36:11;37.75;;;15.40;;
65667;SDS011;52369;52.542;13.232;2023-02-15T08:38:37;39.67;;;16.23;;
65667;SDS011;52369;52.542;13.232;2023-02-15T08:41:14;41.17;;;17.40;;
65667;SDS011;52369;52.542;13.232;2023-02-15T08:43:41;37.88;;;16.35;;
65667;SDS011;52369;52.542;13.232;2023-02-15T08:46:08;37.90;;;15.63;;
65667;SDS011;52369;52.542;13.232;2023-02-15T08:48:34;41.53;;;17.60;;
65667;SDS011;52369;52.542;13.232;2023-02-15T08:51:10;39.85;;;15.88;;
65667;SDS011;52369;52.542;13.232;2023-02-15T08:53:37;38.92;;;15.38;;
65667;SDS011;52369;52.542;13.232;2023-02-15T08:56:04;41.13;;;16.30;;
65667;SDS011;52369;52.542;13.232;2023-02-15T08:58:30;38.38;;;16.55;;
65667;SDS011;52369;52.542;13.232;2023-02-15T09:00:56;33.03;;;15.80;;
65667;SDS011;52369;52.542;13.232;2023-02-15T09:03:22;34.90;;;15.50;;
65667;SDS011;52369;52.542;13.232;2023-02-15T09:05:48;36.50;;;16.25;;
65667;SDS011;52369;52.542;13.232;2023-02-15T09:08:15;36.72;;;15.88;;
65667;SDS011;52369;52.542;13.232;2023-02-15T09:10:41;38.30;;;16.88;;
65667;SDS011;52369;52.542;13.232;2023-02-15T09:13:07;35.72;;;16.20;;
65667;SDS011;52369;52.542;13.232;2023-02-15T09:15:45;36.63;;;16.08;;
65667;SDS011;52369;52.542;13.232;2023-02-15T09:18:11;42.13;;;15.70;;
65667;SDS011;52369;52.542;13.232;2023-02-15T09:20:42;36.33;;;14.93;;
65667;SDS011;52369;52.542;13.232;2023-02-15T09:23:09;35.83;;;14.75;;
65667;SDS011;52369;52.542;13.232;2023-02-15T09:25:35;38.65;;;16.20;;
65667;SDS011;52369;52.542;13.232;2023-02-15T09:28:01;39.33;;;15.93;;
65667;SDS011;52369;52.542;13.232;2023-02-15T09:30:27;37.40;;;16.23;;
65667;SDS011;52369;52.542;13.232;2023-02-15T09:32:53;35.60;;;15.55;;
65667;SDS011;52369;52.542;13.232;2023-02-15T09:35:19;35.33;;;15.52;;
65667;SDS011;52369;52.542;13.232;2023-02-15T09:37:46;35.17;;;15.95;;
65667;SDS011;52369;52.542;13.232;2023-02-15T09:40:12;39.40;;;15.73;;
65667;SDS011;52369;52.542;13.232;2023-02-15T09:52:52;37.05;;;15.38;;
65667;SDS011;52369;52.542;13.232;2023-02-15T09:55:34;39.70;;;17.50;;
65667;SDS011;52369;52.542;13.232;2023-02-15T10:03:12;41.45;;;16.77;;
65667;SDS011;52369;52.542;13.232;2023-02-15T10:08:32;38.65;;;16.02;;
65667;SDS011;52369;52.542;13.232;2023-02-15T10:11:17;42.17;;;17.05;;
65667;SDS011;52369;52.542;13.232;2023-02-15T10:25:00;34.88;;;16.10;;
65667;SDS011;52369;52.542;13.232;2023-02-15T10:27:29;38.53;;;16.48;;
65667;SDS011;52369;52.542;13.232;2023-02-15T10:32:23;37.80;;;16.75;;
65667;SDS011;52369;52.542;13.232;2023-02-15T10:48:02;36.38;;;16.40;;
65667;SDS011;52369;52.542;13.232;2023-02-15T11:00:45;34.40;;;15.52;;
65667;SDS011;52369;52.542;13.232;2023-02-15T11:06:04;35.50;;;16.48;;
65667;SDS011;52369;52.542;13.232;2023-02-15T11:08:32;33.80;;;15.15;;
65667;SDS011;52369;52.542;13.232;2023-02-15T11:11:00;36.95;;;17.48;;
65667;SDS011;52369;52.542;13.232;2023-02-15T11:13:29;39.00;;;16.77;;
65667;SDS011;52369;52.542;13.232;2023-02-15T11:16:03;35.35;;;16.45;;
65667;SDS011;52369;52.542;13.232;2023-02-15T11:23:43;36.10;;;17.10;;
65667;SDS011;52369;52.542;13.232;2023-02-15T11:26:17;35.38;;;15.45;;
65667;SDS011;52369;52.542;13.232;2023-02-15T11:28:47;33.38;;;15.95;;
65667;SDS011;52369;52.542;13.232;2023-02-15T11:31:25;38.70;;;16.25;;
65667;SDS011;52369;52.542;13.232;2023-02-15T11:33:52;36.17;;;16.40;;
65667;SDS011;52369;52.542;13.232;2023-02-15T11:36:24;35.38;;;16.20;;
65667;SDS011;52369;52.542;13.232;2023-02-15T11:38:54;33.33;;;15.88;;
65667;SDS011;52369;52.542;13.232;2023-02-15T11:41:23;31.92;;;15.48;;
65667;SDS011;52369;52.542;13.232;2023-02-15T11:44:00;30.52;;;15.73;;
65667;SDS011;52369;52.542;13.232;2023-02-15T11:46:31;33.15;;;16.10;;
65667;SDS011;52369;52.542;13.232;2023-02-15T11:48:57;31.75;;;15.10;;
65667;SDS011;52369;52.542;13.232;2023-02-15T11:51:23;34.72;;;15.23;;
65667;SDS011;52369;52.542;13.232;2023-02-15T11:53:50;32.45;;;15.98;;
65667;SDS011;52369;52.542;13.232;2023-02-15T11:56:24;34.20;;;16.48;;
65667;SDS011;52369;52.542;13.232;2023-02-15T12:03:58;35.33;;;16.02;;
65667;SDS011;52369;52.542;13.232;2023-02-15T12:06:29;32.05;;;14.43;;
65667;SDS011;52369;52.542;13.232;2023-02-15T12:09:18;30.98;;;16.15;;
65667;SDS011;52369;52.542;13.232;2023-02-15T12:11:42;32.15;;;14.38;;
65667;SDS011;52369;52.542;13.232;2023-02-15T12:14:09;32.72;;;15.13;;
65667;SDS011;52369;52.542;13.232;2023-02-15T12:16:49;35.58;;;16.42;;
65667;SDS011;52369;52.542;13.232;2023-02-15T12:21:54;31.23;;;15.02;;
65667;SDS011;52369;52.542;13.232;2023-02-15T12:24:21;32.13;;;14.73;;
65667;SDS011;52369;52.542;13.232;2023-02-15T12:27:13;32.35;;;15.52;;
65667;SDS011;52369;52.542;13.232;2023-02-15T12:29:41;36.88;;;17.98;;
65667;SDS011;52369;52.542;13.232;2023-02-15T12:32:16;34.58;;;15.45;;
65667;SDS011;52369;52.542;13.232;2023-02-15T12:34:43;29.63;;;15.32;;
65667;SDS011;52369;52.542;13.232;2023-02-15T12:37:23;29.85;;;15.73;;
65667;SDS011;52369;52.542;13.232;2023-02-15T12:39:55;30.98;;;15.02;;
65667;SDS011;52369;52.542;13.232;2023-02-15T12:42:22;27.40;;;14.88;;
65667;SDS011;52369;52.542;13.232;2023-02-15T12:44:53;27.35;;;14.13;;
65667;SDS011;52369;52.542;13.232;2023-02-15T12:47:19;28.00;;;13.80;;
65667;SDS011;52369;52.542;13.232;2023-02-15T12:50:49;27.10;;;14.35;;
65667;SDS011;52369;52.542;13.232;2023-02-15T12:52:46;26.73;;;13.38;;
65667;SDS011;52369;52.542;13.232;2023-02-15T12:55:26;24.98;;;14.13;;
65667;SDS011;52369;52.542;13.232;2023-02-15T12:58:16;26.73;;;14.98;;
65667;SDS011;52369;52.542;13.232;2023-02-15T13:00:42;26.90;;;15.05;;
65667;SDS011;52369;52.542;13.232;2023-02-15T13:03:15;27.75;;;15.30;;
65667;SDS011;52369;52.542;13.232;2023-02-15T13:05:43;24.77;;;13.98;;
65667;SDS011;52369;52.542;13.232;2023-02-15T13:08:27;22.88;;;13.88;;
65667;SDS011;52369;52.542;13.232;2023-02-15T13:11:00;25.95;;;15.63;;
65667;SDS011;52369;52.542;13.232;2023-02-15T13:13:29;25.23;;;15.32;;
65667;SDS011;52369;52.542;13.232;2023-02-15T13:16:05;25.70;;;15.45;;
65667;SDS011;52369;52.542;13.232;2023-02-15T13:18:39;25.55;;;15.55;;
65667;SDS011;52369;52.542;13.232;2023-02-15T13:21:27;24.05;;;15.15;;
65667;SDS011;52369;52.542;13.232;2023-02-15T13:24:05;23.55;;;14.68;;
65667;SDS011;52369;52.542;13.232;2023-02-15T13:26:34;22.23;;;15.18;;
65667;SDS011;52369;52.542;13.232;2023-02-15T13:29:08;23.92;;;15.25;;
65667;SDS011;52369;52.542;13.232;2023-02-15T13:31:37;27.60;;;16.33;;
65667;SDS011;52369;52.542;13.232;2023-02-15T13:34:09;26.30;;;16.23;;
65667;SDS011;52369;52.542;13.232;2023-02-15T13:39:12;27.02;;;15.65;;
65667;SDS011;52369;52.542;13.232;2023-02-15T13:41:46;24.77;;;15.70;;
65667;SDS011;52369;52.542;13.232;2023-02-15T14:05:35;20.38;;;13.48;;
65667;SDS011;52369;52.542;13.232;2023-02-15T14:10:43;22.60;;;13.40;;
65667;SDS011;52369;52.542;13.232;2023-02-15T14:15:49;21.60;;;13.63;;
65667;SDS011;52369;52.542;13.232;2023-02-15T14:28:51;22.10;;;13.93;;
65667;SDS011;52369;52.542;13.232;2023-02-15T14:31:25;20.55;;;13.15;;
65667;SDS011;52369;52.542;13.232;2023-02-15T14:33:53;23.90;;;13.20;;
65667;SDS011;52369;52.542;13.232;2023-02-15T14:36:20;23.83;;;14.00;;
65667;SDS011;52369;52.542;13.232;2023-02-15T14:41:53;24.33;;;14.00;;
65667;SDS011;52369;52.542;13.232;2023-02-15T14:49:17;22.98;;;12.98;;
65667;SDS011;52369;52.542;13.232;2023-02-15T14:54:11;25.35;;;14.20;;
65667;SDS011;52369;52.542;13.232;2023-02-15T14:59:37;22.67;;;13.30;;
65667;SDS011;52369;52.542;13.232;2023-02-15T15:07:21;22.55;;;12.38;;
65667;SDS011;52369;52.542;13.232;2023-02-15T15:09:46;20.83;;;12.57;;
65667;SDS011;52369;52.542;13.232;2023-02-15T15:12:15;24.55;;;12.13;;
65667;SDS011;52369;52.542;13.232;2023-02-15T15:15:00;24.85;;;12.90;;
65667;SDS011;52369;52.542;13.232;2023-02-15T15:20:05;19.35;;;11.30;;
65667;SDS011;52369;52.542;13.232;2023-02-15T15:22:32;23.13;;;12.75;;
65667;SDS011;52369;52.542;13.232;2023-02-15T15:25:00;20.63;;;12.65;;
65667;SDS011;52369;52.542;13.232;2023-02-15T15:38:14;21.67;;;12.85;;
65667;SDS011;52369;52.542;13.232;2023-02-15T15:40:58;32.20;;;13.52;;
65667;SDS011;52369;52.542;13.232;2023-02-15T15:46:30;21.65;;;12.32;;
65667;SDS011;52369;52.542;13.232;2023-02-15T15:49:05;25.40;;;13.25;;
65667;SDS011;52369;52.542;13.232;2023-02-15T15:51:33;25.80;;;12.75;;
65667;SDS011;52369;52.542;13.232;2023-02-15T15:54:01;21.38;;;12.18;;
65667;SDS011;52369;52.542;13.232;2023-02-15T15:56:29;25.95;;;13.10;;
65667;SDS011;52369;52.542;13.232;2023-02-15T15:59:01;35.60;;;15.98;;
65667;SDS011;52369;52.542;13.232;2023-02-15T16:01:29;26.42;;;12.63;;
65667;SDS011;52369;52.542;13.232;2023-02-15T16:03:57;23.83;;;11.60;;
65667;SDS011;52369;52.542;13.232;2023-02-15T16:06:41;25.88;;;13.10;;
65667;SDS011;52369;52.542;13.232;2023-02-15T16:09:16;26.70;;;12.52;;
65667;SDS011;52369;52.542;13.232;2023-02-15T16:11:44;27.95;;;13.10;;
65667;SDS011;52369;52.542;13.232;2023-02-15T16:14:23;28.00;;;13.75;;
65667;SDS011;52369;52.542;13.232;2023-02-15T16:16:51;26.45;;;12.45;;
65667;SDS011;52369;52.542;13.232;2023-02-15T16:19:19;24.83;;;12.88;;
65667;SDS011;52369;52.542;13.232;2023-02-15T16:21:46;25.42;;;12.88;;
65667;SDS011;52369;52.542;13.232;2023-02-15T16:26:52;27.48;;;14.27;;
65667;SDS011;52369;52.542;13.232;2023-02-15T16:29:26;24.75;;;13.65;;
65667;SDS011;52369;52.542;13.232;2023-02-15T16:32:04;26.30;;;13.07;;
65667;SDS011;52369;52.542;13.232;2023-02-15T16:34:31;22.60;;;11.98;;
65667;SDS011;52369;52.542;13.232;2023-02-15T16:37:20;20.83;;;11.65;;
65667;SDS011;52369;52.542;13.232;2023-02-15T16:39:48;19.25;;;10.77;;
65667;SDS011;52369;52.542;13.232;2023-02-15T16:42:14;22.38;;;10.98;;
65667;SDS011;52369;52.542;13.232;2023-02-15T16:44:41;24.00;;;11.70;;
65667;SDS011;52369;52.542;13.232;2023-02-15T16:47:12;19.08;;;10.77;;
65667;SDS011;52369;52.542;13.232;2023-02-15T16:49:40;34.08;;;15.82;;
65667;SDS011;52369;52.542;13.232;2023-02-15T16:52:10;30.40;;;15.10;;
65667;SDS011;52369;52.542;13.232;2023-02-15T16:54:40;28.88;;;14.60;;
65667;SDS011;52369;52.542;13.232;2023-02-15T16:57:21;24.05;;;13.05;;
65667;SDS011;52369;52.542;13.232;2023-02-15T16:59:48;23.40;;;12.52;;
65667;SDS011;52369;52.542;13.232;2023-02-15T17:02:19;25.10;;;11.70;;
65667;SDS011;52369;52.542;13.232;2023-02-15T17:05:01;26.38;;;13.55;;
65667;SDS011;52369;52.542;13.232;2023-02-15T17:07:27;23.40;;;12.40;;
65667;SDS011;52369;52.542;13.232;2023-02-15T17:09:56;31.23;;;13.65;;
65667;SDS011;52369;52.542;13.232;2023-02-15T17:15:24;26.15;;;13.45;;
65667;SDS011;52369;52.542;13.232;2023-02-15T17:17:50;29.13;;;14.02;;
65667;SDS011;52369;52.542;13.232;2023-02-15T17:20:18;32.08;;;15.85;;
65667;SDS011;52369;52.542;13.232;2023-02-15T17:22:46;25.67;;;14.48;;
65667;SDS011;52369;52.542;13.232;2023-02-15T17:25:35;33.17;;;14.13;;
65667;SDS011;52369;52.542;13.232;2023-02-15T17:27:58;30.77;;;15.05;;